Time;durP1;ratioP1;P1;durP2;ratioP2;P2;SDS_P1;SDS_P2;PMS_P1;PMS_P2;Temp;Humidity;BMP_temperature;BMP_pressure;BME280_temperature;BME280_humidity;BME280_pressure;Samples;Min_cycle;Max_cycle;Signal;HPM_P1;HPM_P2
2024/03/25 00:01:43;;;;;;;5.30;4.80;;;;;;;;;;4993751;28;20125;-78
2024/03/25 00:04:08;;;;;;;4.20;3.90;;;;;;;;;;4978935;28;20125;-77
2024/03/25 00:06:35;;;;;;;3.70;3.50;;;;;;;;;;4978333;28;20062;-77
2024/03/25 00:09:01;;;;;;;3.67;3.38;;;;;;;;;;4996307;28;20082;-78
2024/03/25 00:11:27;;;;;;;7.20;3.78;;;;;;;;;;4995450;28;21086;-77
2024/03/25 00:13:53;;;;;;;3.00;2.80;;;;;;;;;;4992932;28;20034;-77
2024/03/25 00:16:19;;;;;;;3.50;3.30;;;;;;;;;;4993173;28;20057;-77
2024/03/25 00:18:45;;;;;;;3.03;2.83;;;;;;;;;;4992100;28;20125;-77
2024/03/25 00:21:10;;;;;;;2.83;2.72;;;;;;;;;;4993439;28;20035;-78
2024/03/25 00:23:36;;;;;;;3.30;3.10;;;;;;;;;;4975731;28;20053;-77
2024/03/25 00:26:02;;;;;;;1.73;1.73;;;;;;;;;;4962163;28;20482;-79
2024/03/25 00:28:28;;;;;;;1.67;1.60;;;;;;;;;;4959948;28;20144;-78
2024/03/25 00:30:54;;;;;;;1.70;1.60;;;;;;;;;;4994251;28;20042;-78
2024/03/25 00:33:20;;;;;;;2.03;1.92;;;;;;;;;;4994351;28;20041;-78
2024/03/25 00:35:46;;;;;;;1.48;1.48;;;;;;;;;;4977328;28;20057;-78
2024/03/25 00:38:12;;;;;;;1.90;1.80;;;;;;;;;;4994055;28;20109;-78
2024/03/25 00:40:38;;;;;;;1.40;1.30;;;;;;;;;;4994955;28;20100;-78
2024/03/25 00:43:04;;;;;;;1.40;1.40;;;;;;;;;;4995770;28;20050;-78
2024/03/25 00:45:32;;;;;;;1.25;1.25;;;;;;;;;;4994657;28;20542;-79
2024/03/25 00:47:59;;;;;;;1.10;1.10;;;;;;;;;;4995320;28;20067;-78
2024/03/25 00:50:25;;;;;;;1.20;1.20;;;;;;;;;;4980372;28;20048;-79
2024/03/25 00:52:52;;;;;;;1.08;1.08;;;;;;;;;;4998701;28;20046;-79
2024/03/25 00:55:17;;;;;;;0.98;0.98;;;;;;;;;;4999995;28;20498;-80
2024/03/25 00:57:44;;;;;;;0.73;0.73;;;;;;;;;;5010146;28;20046;-77
2024/03/25 01:00:10;;;;;;;0.77;0.77;;;;;;;;;;4989169;28;20124;-78
2024/03/25 01:02:37;;;;;;;0.70;0.70;;;;;;;;;;4985223;28;20089;-79
2024/03/25 01:05:05;;;;;;;0.85;0.85;;;;;;;;;;5021196;28;20034;-79
2024/03/25 01:07:31;;;;;;;0.70;0.70;;;;;;;;;;4990236;28;20050;-81
2024/03/25 01:09:58;;;;;;;1.02;1.02;;;;;;;;;;5022696;28;20034;-78
2024/03/25 01:12:25;;;;;;;0.98;0.98;;;;;;;;;;5020938;28;20034;-76
2024/03/25 01:14:51;;;;;;;1.10;1.10;;;;;;;;;;5022106;28;20046;-77
2024/03/25 01:17:17;;;;;;;1.00;1.00;;;;;;;;;;4983395;28;20575;-78
2024/03/25 01:19:43;;;;;;;0.90;0.90;;;;;;;;;;4994551;28;20073;-79
2024/03/25 01:22:09;;;;;;;0.90;0.90;;;;;;;;;;4995771;28;20045;-78
2024/03/25 01:24:34;;;;;;;1.05;1.05;;;;;;;;;;5013620;28;20528;-78
2024/03/25 01:27:00;;;;;;;0.80;0.80;;;;;;;;;;5015360;28;20038;-78
2024/03/25 01:29:26;;;;;;;0.80;0.80;;;;;;;;;;4995277;28;20509;-78
2024/03/25 01:31:52;;;;;;;0.70;0.70;;;;;;;;;;4994344;28;20084;-78
2024/03/25 01:34:17;;;;;;;0.60;0.60;;;;;;;;;;5012571;28;20440;-78
2024/03/25 01:36:44;;;;;;;0.80;0.80;;;;;;;;;;5011747;28;20560;-77
2024/03/25 01:39:09;;;;;;;0.80;0.80;;;;;;;;;;4977548;28;20129;-78
2024/03/25 01:41:35;;;;;;;0.90;0.90;;;;;;;;;;5021169;28;20038;-79
2024/03/25 01:44:04;;;;;;;0.70;0.70;;;;;;;;;;5005034;28;20516;-80
2024/03/25 01:46:30;;;;;;;0.73;0.73;;;;;;;;;;5004376;28;20396;-78
2024/03/25 01:48:58;;;;;;;0.90;0.90;;;;;;;;;;4978740;28;20152;-79
2024/03/25 01:51:24;;;;;;;0.70;0.70;;;;;;;;;;4995001;28;20671;-79
2024/03/25 01:53:50;;;;;;;0.70;0.70;;;;;;;;;;4995935;28;20089;-78
2024/03/25 01:56:15;;;;;;;0.70;0.70;;;;;;;;;;5016224;28;20049;-78
2024/03/25 01:58:41;;;;;;;0.80;0.80;;;;;;;;;;5013749;28;20112;-78
2024/03/25 02:01:10;;;;;;;1.30;0.80;;;;;;;;;;4965458;28;20037;-79
2024/03/25 02:03:36;;;;;;;1.05;1.05;;;;;;;;;;4998566;28;20037;-80
2024/03/25 02:06:02;;;;;;;1.00;1.00;;;;;;;;;;5014870;28;20089;-79
2024/03/25 02:08:28;;;;;;;0.93;0.93;;;;;;;;;;4999770;28;20038;-80
2024/03/25 02:10:57;;;;;;;0.90;0.90;;;;;;;;;;4989879;28;20085;-80
2024/03/25 02:13:23;;;;;;;0.80;0.80;;;;;;;;;;4986456;28;20045;-80
2024/03/25 02:15:51;;;;;;;0.77;0.77;;;;;;;;;;5019091;28;20111;-79
2024/03/25 02:18:17;;;;;;;0.82;0.82;;;;;;;;;;4984411;28;20057;-79
2024/03/25 02:20:43;;;;;;;0.95;0.95;;;;;;;;;;5018293;28;20030;-78
2024/03/25 02:23:10;;;;;;;1.10;1.10;;;;;;;;;;5001982;28;20045;-78
2024/03/25 02:25:38;;;;;;;1.23;1.23;;;;;;;;;;5019326;28;20029;-78
2024/03/25 02:28:04;;;;;;;0.85;0.85;;;;;;;;;;4998633;28;20542;-78
2024/03/25 02:30:30;;;;;;;0.88;0.88;;;;;;;;;;4986649;28;20125;-78
2024/03/25 02:32:55;;;;;;;0.82;0.82;;;;;;;;;;5016109;28;20030;-79
2024/03/25 02:35:21;;;;;;;1.10;1.10;;;;;;;;;;4997199;28;20033;-77
2024/03/25 02:37:47;;;;;;;1.10;1.10;;;;;;;;;;5013023;28;20100;-76
2024/03/25 02:40:13;;;;;;;0.95;0.93;;;;;;;;;;4997536;28;20034;-75
2024/03/25 02:42:39;;;;;;;0.90;0.90;;;;;;;;;;5015010;28;20038;-76
2024/03/25 02:45:06;;;;;;;0.98;0.98;;;;;;;;;;5014846;28;20121;-77
2024/03/25 02:47:32;;;;;;;1.10;1.10;;;;;;;;;;4995683;28;20046;-77
2024/03/25 02:49:58;;;;;;;1.13;1.13;;;;;;;;;;5014114;28;20092;-77
2024/03/25 02:52:24;;;;;;;0.90;0.90;;;;;;;;;;5014330;28;20528;-77
2024/03/25 02:54:49;;;;;;;1.10;1.10;;;;;;;;;;4997266;28;20045;-77
2024/03/25 02:57:15;;;;;;;3.13;1.02;;;;;;;;;;4996413;28;20052;-76
2024/03/25 02:59:41;;;;;;;1.10;1.10;;;;;;;;;;5013981;28;20034;-77
2024/03/25 03:02:07;;;;;;;1.25;1.25;;;;;;;;;;5013747;28;20048;-77
2024/03/25 03:04:33;;;;;;;0.70;0.70;;;;;;;;;;4980255;28;20100;-78
2024/03/25 03:06:59;;;;;;;0.93;0.93;;;;;;;;;;5014314;28;20599;-78
2024/03/25 03:09:25;;;;;;;1.00;1.00;;;;;;;;;;4995828;28;20456;-76
2024/03/25 03:11:51;;;;;;;0.90;0.90;;;;;;;;;;5015177;28;20049;-77
2024/03/25 03:14:16;;;;;;;1.02;1.02;;;;;;;;;;5014807;28;20505;-78
2024/03/25 03:16:42;;;;;;;0.90;0.90;;;;;;;;;;4998890;28;20068;-79
2024/03/25 03:19:08;;;;;;;1.25;1.25;;;;;;;;;;5020231;28;20046;-79
2024/03/25 03:21:34;;;;;;;0.90;0.90;;;;;;;;;;5004569;28;20133;-80
2024/03/25 03:24:00;;;;;;;0.90;0.90;;;;;;;;;;5023022;28;20597;-81
2024/03/25 03:26:27;;;;;;;0.80;0.80;;;;;;;;;;4986691;28;20029;-80
2024/03/25 03:28:56;;;;;;;1.02;1.02;;;;;;;;;;5019674;28;20038;-80
2024/03/25 03:31:22;;;;;;;1.00;1.00;;;;;;;;;;5005179;28;20041;-81
2024/03/25 03:33:48;;;;;;;0.98;0.98;;;;;;;;;;5021332;28;20045;-81
2024/03/25 03:36:15;;;;;;;0.95;0.95;;;;;;;;;;5020485;28;20115;-80
2024/03/25 03:38:41;;;;;;;0.80;0.80;;;;;;;;;;5022664;28;20050;-80
2024/03/25 03:41:07;;;;;;;2.05;1.13;;;;;;;;;;5005677;28;20066;-79
2024/03/25 03:43:32;;;;;;;1.20;1.20;;;;;;;;;;5007145;28;20573;-80
2024/03/25 03:45:58;;;;;;;1.08;1.08;;;;;;;;;;5023830;28;20037;-80
2024/03/25 03:48:24;;;;;;;1.17;1.17;;;;;;;;;;5005749;28;20425;-77
2024/03/25 03:50:50;;;;;;;1.33;1.33;;;;;;;;;;5023360;28;20044;-79
2024/03/25 03:53:16;;;;;;;1.08;1.08;;;;;;;;;;5012223;28;20053;-80
2024/03/25 03:55:41;;;;;;;1.20;1.20;;;;;;;;;;5011707;28;20466;-79
2024/03/25 03:58:07;;;;;;;1.08;1.08;;;;;;;;;;5004510;28;20060;-80
2024/03/25 04:00:34;;;;;;;1.10;1.10;;;;;;;;;;5022572;28;20100;-80
2024/03/25 04:03:00;;;;;;;1.13;1.13;;;;;;;;;;4999969;28;20067;-80
2024/03/25 04:05:30;;;;;;;1.20;1.20;;;;;;;;;;5015108;28;20079;-79
2024/03/25 04:07:55;;;;;;;1.40;1.40;;;;;;;;;;4995988;28;20088;-80
2024/03/25 04:10:21;;;;;;;1.13;1.13;;;;;;;;;;5015385;28;20030;-79
2024/03/25 04:12:47;;;;;;;1.17;1.17;;;;;;;;;;4999338;28;20053;-78
2024/03/25 04:15:17;;;;;;;1.50;1.50;;;;;;;;;;4986906;28;20049;-82
2024/03/25 04:17:44;;;;;;;1.20;1.20;;;;;;;;;;5028124;28;20498;-80
2024/03/25 04:20:11;;;;;;;1.60;1.50;;;;;;;;;;5025830;28;20037;-80
2024/03/25 04:22:37;;;;;;;1.00;1.00;;;;;;;;;;5021789;28;20065;-79
2024/03/25 04:25:03;;;;;;;1.48;1.30;;;;;;;;;;5024865;28;20602;-81
2024/03/25 04:27:29;;;;;;;1.42;1.35;;;;;;;;;;5020258;28;20057;-81
2024/03/25 04:29:55;;;;;;;1.65;1.30;;;;;;;;;;5019860;28;20029;-80
2024/03/25 04:32:20;;;;;;;1.00;1.00;;;;;;;;;;5020542;28;20144;-80
2024/03/25 04:34:46;;;;;;;1.30;1.20;;;;;;;;;;5021390;28;20033;-81
2024/03/25 04:37:12;;;;;;;1.20;1.10;;;;;;;;;;5017453;28;20049;-78
2024/03/25 04:39:38;;;;;;;1.42;1.40;;;;;;;;;;5003851;28;20558;-81
2024/03/25 04:42:04;;;;;;;1.20;1.20;;;;;;;;;;4970695;28;20074;-81
2024/03/25 04:44:30;;;;;;;1.20;1.20;;;;;;;;;;5001813;28;20132;-79
2024/03/25 04:46:56;;;;;;;1.35;1.35;;;;;;;;;;5013585;28;20046;-80
2024/03/25 04:49:22;;;;;;;1.60;1.50;;;;;;;;;;4994925;28;20046;-80
2024/03/25 04:51:50;;;;;;;1.25;1.25;;;;;;;;;;5013686;28;20056;-80
2024/03/25 04:54:16;;;;;;;1.27;1.27;;;;;;;;;;4998258;28;20029;-80
2024/03/25 04:56:44;;;;;;;1.52;1.52;;;;;;;;;;5015400;28;20124;-80
2024/03/25 04:59:10;;;;;;;1.58;1.50;;;;;;;;;;4998769;28;20054;-79
2024/03/25 05:01:36;;;;;;;1.33;1.33;;;;;;;;;;5016357;28;20477;-80
2024/03/25 05:04:02;;;;;;;1.00;1.00;;;;;;;;;;4998595;28;20565;-79
2024/03/25 05:06:28;;;;;;;1.10;1.10;;;;;;;;;;4997055;28;20116;-80
2024/03/25 05:08:54;;;;;;;1.60;1.50;;;;;;;;;;4989742;28;20092;-79
2024/03/25 05:11:19;;;;;;;1.08;1.08;;;;;;;;;;4993563;28;20038;-78
2024/03/25 05:13:45;;;;;;;3.03;1.80;;;;;;;;;;5011371;28;20037;-77
2024/03/25 05:16:11;;;;;;;1.40;1.40;;;;;;;;;;5012457;28;20050;-77
2024/03/25 05:18:37;;;;;;;1.60;1.50;;;;;;;;;;4993554;28;20054;-77
2024/03/25 05:21:03;;;;;;;1.33;1.33;;;;;;;;;;4995942;28;20069;-77
2024/03/25 05:23:29;;;;;;;1.20;1.20;;;;;;;;;;5011204;28;20037;-80
2024/03/25 05:25:57;;;;;;;1.40;1.30;;;;;;;;;;4951273;28;20034;-77
2024/03/25 05:28:23;;;;;;;1.27;1.27;;;;;;;;;;4993815;28;20045;-79
2024/03/25 05:30:49;;;;;;;1.60;1.50;;;;;;;;;;5012965;28;20034;-79
2024/03/25 05:33:15;;;;;;;1.17;1.17;;;;;;;;;;4980604;28;20037;-76
2024/03/25 05:35:41;;;;;;;1.00;1.00;;;;;;;;;;4992141;28;20548;-78
2024/03/25 05:38:07;;;;;;;1.10;1.10;;;;;;;;;;5010324;28;20061;-78
2024/03/25 05:40:33;;;;;;;1.70;1.60;;;;;;;;;;4994539;28;20137;-80
2024/03/25 05:42:59;;;;;;;1.60;1.30;;;;;;;;;;4996804;28;20117;-79
2024/03/25 05:45:25;;;;;;;1.50;1.40;;;;;;;;;;4994281;28;20029;-76
2024/03/25 05:47:51;;;;;;;1.52;1.42;;;;;;;;;;5008816;28;20040;-78
2024/03/25 05:50:16;;;;;;;1.60;1.50;;;;;;;;;;5009727;28;20597;-76
2024/03/25 05:52:42;;;;;;;2.85;1.73;;;;;;;;;;4972321;28;20034;-78
2024/03/25 05:55:10;;;;;;;1.48;1.38;;;;;;;;;;4989761;28;20034;-78
2024/03/25 05:57:36;;;;;;;1.20;1.20;;;;;;;;;;4974781;28;20520;-77
2024/03/25 06:00:03;;;;;;;1.60;1.60;;;;;;;;;;4991612;28;20067;-78
2024/03/25 06:02:37;;;;;;;1.75;1.65;;;;;;;;;;5002971;28;20393;-78
2024/03/25 06:05:05;;;;;;;2.03;1.92;;;;;;;;;;5011059;28;20037;-77
2024/03/25 06:07:30;;;;;;;1.67;1.60;;;;;;;;;;5008927;28;20053;-77
2024/03/25 06:09:56;;;;;;;1.70;1.60;;;;;;;;;;5010655;28;20034;-79
2024/03/25 06:12:22;;;;;;;3.60;1.50;;;;;;;;;;4995879;28;20030;-78
2024/03/25 06:14:48;;;;;;;1.40;1.40;;;;;;;;;;4972714;28;20569;-76
2024/03/25 06:17:14;;;;;;;1.27;1.27;;;;;;;;;;5001685;28;20050;-80
2024/03/25 06:19:39;;;;;;;1.55;1.45;;;;;;;;;;4999194;28;20045;-77
2024/03/25 06:22:05;;;;;;;1.45;1.45;;;;;;;;;;4989882;28;20587;-76
2024/03/25 06:24:31;;;;;;;1.80;1.70;;;;;;;;;;4991900;28;20442;-79
2024/03/25 06:26:57;;;;;;;1.50;1.42;;;;;;;;;;4989773;28;20045;-77
2024/03/25 06:29:24;;;;;;;1.38;1.38;;;;;;;;;;4989362;28;20046;-78
2024/03/25 06:34:34;;;;;;;1.60;1.50;;;;;;;;;;4970686;28;20043;-80
2024/03/25 06:37:04;;;;;;;1.77;1.38;;;;;;;;;;4954920;28;20057;-79
2024/03/25 06:39:30;;;;;;;1.70;1.70;;;;;;;;;;4971685;28;20506;-79
2024/03/25 06:41:56;;;;;;;1.90;1.80;;;;;;;;;;4971349;28;20043;-79
2024/03/25 06:44:23;;;;;;;1.67;1.58;;;;;;;;;;4970883;28;20531;-77
2024/03/25 06:46:49;;;;;;;1.80;1.70;;;;;;;;;;4969715;28;20039;-77
2024/03/25 06:49:14;;;;;;;1.90;1.80;;;;;;;;;;4983352;28;20051;-77
2024/03/25 06:51:40;;;;;;;2.00;1.90;;;;;;;;;;4987472;28;20057;-77
2024/03/25 06:54:07;;;;;;;1.50;1.40;;;;;;;;;;4987209;28;20093;-77
2024/03/25 06:56:32;;;;;;;1.58;1.30;;;;;;;;;;4986480;28;20080;-79
2024/03/25 06:58:58;;;;;;;1.52;1.42;;;;;;;;;;4988414;28;20090;-78
2024/03/25 07:01:24;;;;;;;1.80;1.70;;;;;;;;;;4969776;28;20031;-77
2024/03/25 07:03:51;;;;;;;2.35;1.85;;;;;;;;;;4992869;28;20064;-78
2024/03/25 07:06:17;;;;;;;1.77;1.67;;;;;;;;;;4976260;28;20104;-79
2024/03/25 07:08:43;;;;;;;1.92;1.83;;;;;;;;;;4984906;28;20525;-80
2024/03/25 07:11:09;;;;;;;2.58;1.80;;;;;;;;;;4995955;28;20038;-79
2024/03/25 07:13:35;;;;;;;1.80;1.80;;;;;;;;;;4997404;28;20092;-80
2024/03/25 07:16:03;;;;;;;2.40;2.20;;;;;;;;;;4996667;28;20100;-79
2024/03/25 07:18:28;;;;;;;2.00;1.90;;;;;;;;;;4993236;28;20125;-78
2024/03/25 07:20:55;;;;;;;3.22;2.40;;;;;;;;;;4976167;28;20168;-78
2024/03/25 07:23:21;;;;;;;2.38;2.28;;;;;;;;;;4993142;28;20546;-78
2024/03/25 07:25:47;;;;;;;5.18;2.28;;;;;;;;;;5006251;28;20037;-77
2024/03/25 07:28:13;;;;;;;2.20;2.10;;;;;;;;;;4998743;28;20042;-77
2024/03/25 07:30:39;;;;;;;2.45;2.30;;;;;;;;;;5002662;28;20490;-77
2024/03/25 07:33:04;;;;;;;3.08;2.88;;;;;;;;;;4997379;28;20076;-78
2024/03/25 07:35:30;;;;;;;3.60;2.35;;;;;;;;;;4988904;28;20042;-78
2024/03/25 07:37:57;;;;;;;2.75;2.50;;;;;;;;;;4988374;28;20042;-78
2024/03/25 07:40:23;;;;;;;2.42;2.22;;;;;;;;;;4990369;28;20046;-78
2024/03/25 07:42:49;;;;;;;2.40;2.20;;;;;;;;;;4992164;28;20030;-78
2024/03/25 07:45:15;;;;;;;2.60;2.25;;;;;;;;;;4989402;28;20042;-78
2024/03/25 07:47:41;;;;;;;4.38;2.40;;;;;;;;;;4990779;28;20043;-77
2024/03/25 07:50:09;;;;;;;2.70;2.55;;;;;;;;;;4991324;28;20037;-77
2024/03/25 07:52:40;;;;;;;2.25;2.15;;;;;;;;;;4990443;28;20030;-77
2024/03/25 07:55:07;;;;;;;2.03;1.92;;;;;;;;;;4991718;28;20026;-77
2024/03/25 07:57:33;;;;;;;5.25;2.45;;;;;;;;;;4989558;28;20518;-78
2024/03/25 07:59:59;;;;;;;2.92;2.72;;;;;;;;;;5000553;28;20037;-80
2024/03/25 08:02:26;;;;;;;2.40;2.25;;;;;;;;;;4996113;28;20494;-80
2024/03/25 08:04:52;;;;;;;3.78;2.50;;;;;;;;;;4993366;28;20041;-81
2024/03/25 08:07:18;;;;;;;3.60;3.30;;;;;;;;;;4977380;28;20129;-80
2024/03/25 08:09:44;;;;;;;2.78;2.58;;;;;;;;;;4998304;28;20113;-81
2024/03/25 08:12:10;;;;;;;4.85;2.50;;;;;;;;;;4996773;28;20065;-80
2024/03/25 08:14:35;;;;;;;5.68;2.97;;;;;;;;;;4992530;28;20053;-81
2024/03/25 08:17:02;;;;;;;3.33;2.50;;;;;;;;;;5017041;28;20050;-81
2024/03/25 08:19:28;;;;;;;3.03;2.63;;;;;;;;;;5017574;28;20041;-81
2024/03/25 08:21:54;;;;;;;3.63;2.83;;;;;;;;;;5023301;28;20038;-81
2024/03/25 08:24:20;;;;;;;10.45;5.13;;;;;;;;;;5002197;28;20494;-81
2024/03/25 08:26:46;;;;;;;3.95;2.05;;;;;;;;;;5020257;28;20041;-80
2024/03/25 08:29:12;;;;;;;9.65;2.65;;;;;;;;;;5017698;28;20033;-82
2024/03/25 08:31:38;;;;;;;4.07;2.33;;;;;;;;;;5015182;28;20410;-80
2024/03/25 08:34:04;;;;;;;2.38;2.10;;;;;;;;;;5013118;28;20037;-82
2024/03/25 08:36:30;;;;;;;2.47;2.30;;;;;;;;;;5018946;28;20573;-81
2024/03/25 08:38:56;;;;;;;2.13;2.03;;;;;;;;;;5002949;28;20054;-81
2024/03/25 08:41:22;;;;;;;2.65;2.40;;;;;;;;;;5004435;28;20116;-81
2024/03/25 08:43:47;;;;;;;2.47;2.30;;;;;;;;;;5019807;28;20029;-82
2024/03/25 08:46:13;;;;;;;5.03;2.70;;;;;;;;;;5018936;28;20048;-82
2024/03/25 08:48:39;;;;;;;3.30;2.42;;;;;;;;;;5017353;28;20038;-81
2024/03/25 08:51:05;;;;;;;3.33;2.53;;;;;;;;;;5020374;28;20038;-80
2024/03/25 08:53:31;;;;;;;2.60;2.40;;;;;;;;;;5000894;28;20026;-80
2024/03/25 08:55:57;;;;;;;6.95;2.63;;;;;;;;;;4984775;28;20117;-81
2024/03/25 08:58:23;;;;;;;3.67;3.35;;;;;;;;;;4978592;28;20084;-80
2024/03/25 09:00:49;;;;;;;4.30;2.80;;;;;;;;;;4982215;28;20034;-81
2024/03/25 09:03:14;;;;;;;2.40;2.20;;;;;;;;;;5008348;28;20424;-80
2024/03/25 09:05:41;;;;;;;4.43;3.30;;;;;;;;;;5001266;28;20449;-80
2024/03/25 09:08:12;;;;;;;6.25;2.55;;;;;;;;;;5020582;28;20058;-81
2024/03/25 09:13:25;;;;;;;3.15;2.55;;;;;;;;;;5021586;28;20041;-80
2024/03/25 09:15:51;;;;;;;6.75;2.80;;;;;;;;;;5002747;28;20489;-81
2024/03/25 09:18:20;;;;;;;2.90;2.80;;;;;;;;;;5018880;28;20058;-81
2024/03/25 09:20:46;;;;;;;7.68;2.88;;;;;;;;;;5000183;28;20037;-79
2024/03/25 09:23:13;;;;;;;7.03;2.92;;;;;;;;;;4998856;28;20033;-81
2024/03/25 09:25:39;;;;;;;2.90;2.70;;;;;;;;;;5018986;28;20053;-80
2024/03/25 09:28:06;;;;;;;4.68;3.38;;;;;;;;;;4995673;28;20076;-81
2024/03/25 09:30:32;;;;;;;3.80;2.90;;;;;;;;;;5009555;28;20033;-80
2024/03/25 09:32:58;;;;;;;3.22;2.92;;;;;;;;;;5020293;28;20037;-80
2024/03/25 09:35:23;;;;;;;4.53;2.97;;;;;;;;;;5017448;28;20037;-81
2024/03/25 09:37:49;;;;;;;3.38;2.95;;;;;;;;;;5015327;28;20124;-81
2024/03/25 09:40:15;;;;;;;2.95;2.75;;;;;;;;;;5000409;28;20044;-80
2024/03/25 09:42:47;;;;;;;3.15;2.85;;;;;;;;;;5000393;28;20093;-80
2024/03/25 09:45:15;;;;;;;3.72;3.30;;;;;;;;;;5006509;28;20181;-81
2024/03/25 09:47:41;;;;;;;4.78;3.20;;;;;;;;;;4999396;28;20053;-80
2024/03/25 09:50:08;;;;;;;3.33;3.00;;;;;;;;;;4976091;28;20038;-79
2024/03/25 09:52:34;;;;;;;4.07;3.10;;;;;;;;;;5017960;28;20029;-80
2024/03/25 09:54:59;;;;;;;2.50;2.30;;;;;;;;;;4980320;28;20410;-81
2024/03/25 09:57:27;;;;;;;3.08;2.78;;;;;;;;;;5014940;28;20050;-79
2024/03/25 09:59:53;;;;;;;3.58;3.10;;;;;;;;;;5020135;28;20026;-81
2024/03/25 10:02:19;;;;;;;2.97;2.67;;;;;;;;;;5001050;28;20044;-80
2024/03/25 10:04:46;;;;;;;4.00;3.25;;;;;;;;;;5000033;28;20421;-81
2024/03/25 10:07:16;;;;;;;4.05;2.53;;;;;;;;;;4994477;28;20417;-79
2024/03/25 10:09:43;;;;;;;7.85;3.25;;;;;;;;;;4975626;28;20045;-81
2024/03/25 10:12:09;;;;;;;8.85;3.13;;;;;;;;;;4992368;28;20041;-81
2024/03/25 10:14:35;;;;;;;5.95;3.35;;;;;;;;;;5011831;28;20030;-81
2024/03/25 10:17:02;;;;;;;7.60;3.10;;;;;;;;;;4994542;28;20486;-80
2024/03/25 10:19:28;;;;;;;5.90;2.88;;;;;;;;;;4991429;28;20041;-80
2024/03/25 10:22:01;;;;;;;8.77;3.22;;;;;;;;;;4993171;28;20446;-81
2024/03/25 10:24:27;;;;;;;4.53;3.25;;;;;;;;;;5010224;28;20132;-80
2024/03/25 10:26:57;;;;;;;2.63;2.40;;;;;;;;;;4975495;28;20030;-81
2024/03/25 10:29:24;;;;;;;4.43;2.85;;;;;;;;;;4992717;28;20174;-80
2024/03/25 10:31:58;;;;;;;4.68;3.00;;;;;;;;;;4995217;28;20022;-80
2024/03/25 10:34:24;;;;;;;5.75;2.72;;;;;;;;;;5013921;28;20052;-81
2024/03/25 10:36:50;;;;;;;5.40;2.92;;;;;;;;;;4996931;28;20030;-81
2024/03/25 10:39:16;;;;;;;5.03;3.15;;;;;;;;;;4996080;28;20042;-81
2024/03/25 10:41:42;;;;;;;4.05;2.80;;;;;;;;;;4978945;28;20376;-80
2024/03/25 10:44:07;;;;;;;6.72;2.63;;;;;;;;;;5009493;28;20419;-80
2024/03/25 10:46:34;;;;;;;4.32;3.03;;;;;;;;;;4995259;28;20054;-80
2024/03/25 10:49:07;;;;;;;4.75;3.08;;;;;;;;;;4994771;28;20045;-80
2024/03/25 10:51:33;;;;;;;2.65;2.40;;;;;;;;;;4998022;28;20026;-80
2024/03/25 10:53:59;;;;;;;4.90;3.22;;;;;;;;;;4997314;28;20509;-80
2024/03/25 10:56:25;;;;;;;6.55;4.40;;;;;;;;;;4994566;28;20465;-78
2024/03/25 10:59:10;;;;;;;9.23;6.40;;;;;;;;;;4992114;28;20046;-79
2024/03/25 11:01:37;;;;;;;6.80;3.70;;;;;;;;;;4986919;28;20029;-78
2024/03/25 11:04:05;;;;;;;7.63;3.05;;;;;;;;;;4993727;28;20037;-78
2024/03/25 11:06:33;;;;;;;5.15;3.83;;;;;;;;;;5012096;28;20089;-79
2024/03/25 11:08:59;;;;;;;4.53;4.03;;;;;;;;;;4990949;28;20508;-80
2024/03/25 11:11:32;;;;;;;5.25;3.10;;;;;;;;;;5014055;28;20040;-80
2024/03/25 11:13:59;;;;;;;3.33;2.63;;;;;;;;;;4994438;28;20080;-79
2024/03/25 11:16:31;;;;;;;3.95;2.55;;;;;;;;;;5010941;28;20057;-80
2024/03/25 11:19:03;;;;;;;2.83;2.50;;;;;;;;;;5010543;28;20545;-79
2024/03/25 11:21:29;;;;;;;3.42;3.10;;;;;;;;;;5011458;28;20027;-78
2024/03/25 11:23:54;;;;;;;4.00;2.78;;;;;;;;;;5012363;28;20490;-78
2024/03/25 11:26:30;;;;;;;3.17;2.60;;;;;;;;;;4993303;28;20529;-78
2024/03/25 11:28:56;;;;;;;2.90;2.70;;;;;;;;;;5010307;28;20069;-78
2024/03/25 11:31:24;;;;;;;4.30;2.70;;;;;;;;;;4976274;28;20057;-78
2024/03/25 11:33:50;;;;;;;7.95;3.47;;;;;;;;;;4993643;28;20061;-78
2024/03/25 11:36:18;;;;;;;4.32;3.05;;;;;;;;;;4994253;28;20065;-78
2024/03/25 11:38:44;;;;;;;3.70;3.10;;;;;;;;;;5011702;28;20057;-79
2024/03/25 11:41:10;;;;;;;6.13;2.90;;;;;;;;;;4993655;28;20049;-77
2024/03/25 11:43:36;;;;;;;4.85;3.10;;;;;;;;;;4978019;28;20589;-78
2024/03/25 11:46:02;;;;;;;6.95;3.30;;;;;;;;;;4991740;28;20109;-78
2024/03/25 11:48:32;;;;;;;3.92;2.85;;;;;;;;;;4976384;28;20042;-78
2024/03/25 11:50:58;;;;;;;3.30;3.00;;;;;;;;;;5012660;28;20045;-78
2024/03/25 11:53:24;;;;;;;3.78;3.08;;;;;;;;;;5010223;28;20034;-78
2024/03/25 11:55:51;;;;;;;3.83;2.78;;;;;;;;;;4994894;28;20037;-77
2024/03/25 11:58:17;;;;;;;6.15;2.95;;;;;;;;;;4978617;28;20053;-77
2024/03/25 12:00:49;;;;;;;3.80;3.10;;;;;;;;;;5015019;28;20030;-77
2024/03/25 12:03:15;;;;;;;3.75;3.45;;;;;;;;;;5022073;28;20034;-77
2024/03/25 12:05:42;;;;;;;3.85;3.25;;;;;;;;;;5022653;28;20044;-76
2024/03/25 12:08:10;;;;;;;3.13;2.92;;;;;;;;;;5017855;28;20088;-77
2024/03/25 12:13:24;;;;;;;6.88;3.30;;;;;;;;;;5010217;28;20043;-77
2024/03/25 12:15:51;;;;;;;7.53;3.22;;;;;;;;;;4993318;28;20137;-77
2024/03/25 12:18:17;;;;;;;2.75;2.55;;;;;;;;;;5009136;28;20152;-78
2024/03/25 12:20:45;;;;;;;4.78;3.40;;;;;;;;;;4978667;28;20029;-78
2024/03/25 12:23:11;;;;;;;3.75;2.88;;;;;;;;;;4992827;28;20049;-79
2024/03/25 12:25:37;;;;;;;6.30;3.63;;;;;;;;;;5010836;28;20032;-78
2024/03/25 12:28:07;;;;;;;9.25;3.35;;;;;;;;;;4983332;28;20081;-78
2024/03/25 12:30:33;;;;;;;;;;;;;;;;;;5003278;28;20026;-78
2024/03/25 12:33:00;;;;;;;4.15;2.90;;;;;;;;;;4978072;28;20447;-78
2024/03/25 12:35:26;;;;;;;3.40;3.10;;;;;;;;;;4992868;28;20092;-77
2024/03/25 12:37:52;;;;;;;6.28;3.40;;;;;;;;;;4990621;28;20056;-77
2024/03/25 12:40:27;;;;;;;7.95;3.60;;;;;;;;;;4972264;28;20042;-77
2024/03/25 12:42:54;;;;;;;3.97;3.10;;;;;;;;;;5010646;28;20038;-78
2024/03/25 12:45:20;;;;;;;3.88;3.45;;;;;;;;;;4993644;28;20091;-78
2024/03/25 12:47:46;;;;;;;5.22;3.30;;;;;;;;;;4993550;28;20042;-78
2024/03/25 12:50:12;;;;;;;6.65;3.40;;;;;;;;;;5010987;28;20041;-77
2024/03/25 12:52:38;;;;;;;4.03;3.35;;;;;;;;;;4971919;28;20106;-78
2024/03/25 12:55:04;;;;;;;18.45;11.15;;;;;;;;;;5006659;28;20130;-78
2024/03/25 12:57:30;;;;;;;4.50;3.15;;;;;;;;;;4951129;28;20073;-77
2024/03/25 12:59:56;;;;;;;9.10;4.03;;;;;;;;;;5011158;28;20493;-78
2024/03/25 13:02:22;;;;;;;7.18;3.22;;;;;;;;;;4991995;28;20034;-78
2024/03/25 13:04:48;;;;;;;4.50;3.45;;;;;;;;;;5011306;28;20033;-78
2024/03/25 13:07:14;;;;;;;3.42;3.15;;;;;;;;;;5008689;28;20038;-77
2024/03/25 13:09:40;;;;;;;6.25;3.97;;;;;;;;;;4976839;28;20560;-78
2024/03/25 13:12:06;;;;;;;4.00;3.47;;;;;;;;;;4992434;28;20044;-78
2024/03/25 13:14:32;;;;;;;9.07;3.60;;;;;;;;;;5011062;28;20029;-79
2024/03/25 13:16:58;;;;;;;3.45;3.15;;;;;;;;;;5009582;28;20422;-78
2024/03/25 13:19:27;;;;;;;4.38;3.80;;;;;;;;;;4990940;28;20156;-78
2024/03/25 13:21:55;;;;;;;4.80;3.28;;;;;;;;;;5010328;28;20022;-77
2024/03/25 13:24:21;;;;;;;6.30;3.92;;;;;;;;;;4975123;28;20045;-78
2024/03/25 13:26:47;;;;;;;8.75;3.72;;;;;;;;;;4993105;28;20026;-76
2024/03/25 13:29:13;;;;;;;8.10;3.38;;;;;;;;;;4991044;28;20037;-77
2024/03/25 13:31:39;;;;;;;4.30;3.90;;;;;;;;;;4992258;28;20063;-78
2024/03/25 13:34:04;;;;;;;8.27;3.75;;;;;;;;;;4992655;28;20421;-78
2024/03/25 13:36:31;;;;;;;6.88;4.00;;;;;;;;;;4985991;28;20402;-78
2024/03/25 13:38:57;;;;;;;10.40;3.60;;;;;;;;;;4977297;28;20138;-78
2024/03/25 13:41:23;;;;;;;9.93;3.67;;;;;;;;;;4989749;28;20672;-78
2024/03/25 13:43:50;;;;;;;11.95;4.05;;;;;;;;;;5009786;28;20034;-77
2024/03/25 13:46:16;;;;;;;7.72;3.90;;;;;;;;;;5009384;28;20034;-78
2024/03/25 13:48:42;;;;;;;7.15;4.10;;;;;;;;;;4990988;28;20119;-78
2024/03/25 13:51:08;;;;;;;7.90;4.03;;;;;;;;;;5010419;28;20044;-77
2024/03/25 13:53:34;;;;;;;6.95;3.60;;;;;;;;;;4992448;28;20132;-78
2024/03/25 13:56:02;;;;;;;5.10;4.07;;;;;;;;;;5009091;28;20061;-78
2024/03/25 13:58:28;;;;;;;9.95;4.15;;;;;;;;;;5009326;28;20049;-78
2024/03/25 14:00:55;;;;;;;4.43;3.97;;;;;;;;;;5010790;28;20528;-78
2024/03/25 14:03:21;;;;;;;4.25;3.90;;;;;;;;;;5009198;28;20046;-78
2024/03/25 14:05:47;;;;;;;4.72;4.25;;;;;;;;;;4993196;28;20057;-78
2024/03/25 14:08:13;;;;;;;15.52;4.28;;;;;;;;;;4991124;28;20060;-78
2024/03/25 14:10:39;;;;;;;6.35;4.28;;;;;;;;;;4991948;28;20419;-77
2024/03/25 14:13:05;;;;;;;12.27;5.07;;;;;;;;;;4957325;28;20038;-78
2024/03/25 14:15:31;;;;;;;5.40;3.72;;;;;;;;;;5000759;28;20053;-79
2024/03/25 14:17:57;;;;;;;6.35;4.65;;;;;;;;;;4991841;28;20104;-78
2024/03/25 14:20:23;;;;;;;14.35;7.85;;;;;;;;;;5006595;28;20037;-79
2024/03/25 14:22:49;;;;;;;7.72;4.28;;;;;;;;;;5010682;28;20038;-77
2024/03/25 14:25:15;;;;;;;7.05;3.75;;;;;;;;;;4991174;28;20608;-77
2024/03/25 14:27:41;;;;;;;6.50;3.63;;;;;;;;;;5007579;28;20052;-79
2024/03/25 14:30:10;;;;;;;6.45;4.03;;;;;;;;;;4991418;28;20082;-78
2024/03/25 14:32:38;;;;;;;6.38;4.03;;;;;;;;;;4990692;28;20034;-77
2024/03/25 14:35:04;;;;;;;4.47;4.07;;;;;;;;;;5009683;28;20030;-77
2024/03/25 14:37:30;;;;;;;6.65;3.85;;;;;;;;;;4974367;28;20172;-77
2024/03/25 14:39:56;;;;;;;4.50;3.97;;;;;;;;;;5008545;28;20074;-78
2024/03/25 14:42:22;;;;;;;8.38;3.90;;;;;;;;;;4989332;28;20036;-78
2024/03/25 14:44:48;;;;;;;4.35;3.95;;;;;;;;;;5008553;28;20030;-77
2024/03/25 14:47:14;;;;;;;6.53;3.95;;;;;;;;;;4990033;28;20029;-77